createdAt,value
2023-01-13T00:05:01.628Z,6.65
2023-01-13T00:10:07.140Z,5.90
2023-01-13T00:15:13.445Z,5.00
2023-01-13T00:20:19.165Z,5.05
2023-01-13T00:25:23.091Z,5.68
2023-01-13T00:30:26.680Z,4.68
2023-01-13T00:35:31.969Z,5.00
2023-01-13T00:40:35.855Z,4.53
2023-01-13T00:45:40.582Z,5.80
2023-01-13T00:50:45.930Z,5.03
2023-01-13T00:55:49.671Z,4.45
2023-01-13T01:00:53.513Z,4.63
2023-01-13T01:05:59.417Z,5.75
2023-01-13T01:11:05.341Z,4.35
2023-01-13T01:16:13.312Z,5.68
2023-01-13T01:21:19.951Z,4.57
2023-01-13T01:26:27.263Z,5.97
2023-01-13T01:31:34.128Z,6.90
2023-01-13T01:36:40.753Z,6.43
2023-01-13T01:42:04.667Z,5.13
2023-01-13T01:47:08.628Z,6.07
2023-01-13T01:52:19.164Z,4.80
2023-01-13T01:57:30.230Z,4.47
2023-01-13T02:02:34.470Z,7.38
2023-01-13T02:07:42.425Z,6.50
2023-01-13T02:12:47.870Z,5.30
2023-01-13T02:18:19.568Z,4.78
2023-01-13T02:24:21.051Z,4.68
2023-01-13T02:30:12.466Z,4.32
2023-01-13T02:35:27.645Z,4.82
2023-01-13T02:40:39.846Z,4.65
2023-01-13T02:45:53.216Z,4.82
2023-01-13T02:51:03.335Z,4.25
2023-01-13T02:56:09.701Z,3.60
2023-01-13T03:01:15.449Z,4.72
2023-01-13T03:06:40.556Z,3.53
2023-01-13T03:11:57.318Z,3.83
2023-01-13T03:17:17.728Z,5.60
2023-01-13T03:22:31.980Z,4.10
2023-01-13T03:27:48.987Z,4.90
2023-01-13T03:33:01.171Z,5.53
2023-01-13T03:38:11.042Z,5.45
2023-01-13T03:43:39.669Z,6.45
2023-01-13T03:48:47.415Z,4.15
2023-01-13T03:53:57.422Z,5.40
2023-01-13T03:59:06.864Z,4.97
2023-01-13T04:04:19.861Z,4.10
2023-01-13T04:09:33.435Z,4.47
2023-01-13T04:14:38.075Z,4.35
2023-01-13T04:19:43.097Z,4.53
2023-01-13T04:24:46.899Z,4.53
2023-01-13T04:29:50.610Z,4.90
2023-01-13T04:34:55.756Z,5.03
2023-01-13T04:39:59.559Z,4.65
2023-01-13T04:45:03.227Z,4.05
2023-01-13T04:50:10.881Z,4.53
2023-01-13T04:55:14.781Z,3.97
2023-01-13T05:00:23.077Z,4.55
2023-01-13T05:05:28.907Z,3.38
2023-01-13T05:10:32.572Z,5.78
2023-01-13T05:15:53.493Z,3.85
2023-01-13T05:20:58.870Z,2.85
2023-01-13T05:26:03.346Z,3.78
2023-01-13T05:31:07.612Z,5.72
2023-01-13T05:36:12.924Z,4.95
2023-01-13T05:41:34.310Z,3.75
2023-01-13T05:46:38.064Z,8.07
2023-01-13T05:51:43.309Z,6.80
2023-01-13T05:56:47.007Z,5.95
2023-01-13T06:01:50.670Z,4.82
2023-01-13T06:06:56.030Z,5.78
2023-01-13T06:11:59.751Z,3.47
2023-01-13T06:17:03.401Z,5.00
2023-01-13T06:22:17.430Z,4.47
2023-01-13T06:27:22.885Z,4.20
2023-01-13T06:32:33.247Z,5.20
2023-01-13T06:37:39.458Z,4.10
2023-01-13T06:43:01.566Z,4.57
2023-01-13T06:48:06.455Z,4.10
2023-01-13T06:53:12.020Z,4.60
2023-01-13T06:58:15.687Z,4.22
2023-01-13T07:03:21.584Z,3.47
2023-01-13T07:08:26.821Z,5.18
2023-01-13T07:13:48.064Z,3.33
2023-01-13T07:18:52.086Z,4.70
2023-01-13T07:23:57.167Z,3.30
2023-01-13T07:29:00.955Z,3.78
2023-01-13T07:34:05.324Z,3.38
2023-01-13T07:39:10.339Z,6.63
2023-01-13T07:44:14.129Z,3.75
2023-01-13T07:49:18.244Z,4.50
2023-01-13T07:54:39.084Z,4.95
2023-01-13T07:59:43.785Z,4.00
2023-01-13T08:04:47.446Z,4.80
2023-01-13T08:09:55.119Z,4.93
2023-01-13T08:14:58.891Z,4.38
2023-01-13T08:20:02.684Z,6.15
2023-01-13T08:25:09.723Z,7.70
2023-01-13T08:30:13.895Z,6.37
2023-01-13T08:35:18.839Z,8.80
2023-01-13T08:40:24.160Z,7.88
2023-01-13T08:45:27.947Z,10.35
2023-01-13T08:50:31.896Z,10.00
2023-01-13T08:55:37.079Z,13.00
2023-01-13T09:00:41.266Z,12.88
2023-01-13T09:05:45.137Z,25.25
2023-01-13T09:10:50.341Z,18.70
2023-01-13T09:15:56.789Z,15.88
2023-01-13T09:21:01.052Z,13.38
2023-01-13T09:26:06.530Z,12.65
2023-01-13T09:31:10.238Z,16.17
2023-01-13T09:36:13.886Z,13.20
2023-01-13T09:41:46.670Z,12.40
2023-01-13T09:46:55.038Z,12.57
2023-01-13T09:52:07.678Z,10.63
2023-01-13T09:57:17.011Z,8.52
2023-01-13T10:02:42.020Z,9.65
2023-01-13T10:07:52.734Z,31.02
2023-01-13T10:13:16.249Z,22.75
2023-01-13T10:18:33.391Z,13.38
2023-01-13T10:23:55.686Z,16.20
2023-01-13T10:29:01.182Z,10.90
2023-01-13T10:34:05.619Z,10.35
2023-01-13T10:39:16.186Z,11.85
2023-01-13T10:44:21.312Z,11.55
2023-01-13T10:49:36.379Z,11.85
2023-01-13T10:54:54.492Z,15.45
2023-01-13T10:59:59.652Z,18.30
2023-01-13T11:05:23.027Z,14.70
2023-01-13T11:10:31.310Z,11.95
2023-01-13T11:15:45.297Z,14.48
2023-01-13T11:20:52.744Z,15.55
2023-01-13T11:26:04.597Z,10.48
2023-01-13T11:31:20.554Z,16.10
2023-01-13T11:36:32.641Z,11.88
2023-01-13T11:41:46.056Z,13.48
2023-01-13T11:46:53.065Z,12.10
2023-01-13T11:52:05.117Z,12.00
2023-01-13T11:57:44.076Z,13.20
2023-01-13T12:03:04.119Z,13.40
2023-01-13T12:08:23.571Z,13.45
2023-01-13T12:13:41.632Z,13.30
2023-01-13T12:19:20.383Z,9.73
2023-01-13T12:24:31.889Z,11.45
2023-01-13T12:29:39.192Z,10.48
2023-01-13T12:35:06.151Z,11.07
2023-01-13T12:40:33.283Z,9.73
2023-01-13T12:45:37.195Z,10.67
2023-01-13T12:50:45.913Z,10.10
2023-01-13T12:55:53.546Z,8.15
2023-01-13T13:01:12.950Z,10.88
2023-01-13T13:06:22.351Z,10.93
2023-01-13T13:12:00.564Z,9.18
2023-01-13T13:17:05.036Z,10.07
2023-01-13T13:22:43.049Z,9.23
2023-01-13T13:27:55.666Z,8.52
2023-01-13T13:39:34.129Z,9.15
2023-01-13T13:44:55.453Z,10.43
2023-01-13T13:50:10.535Z,9.27
2023-01-13T13:55:26.756Z,8.90
2023-01-13T14:00:33.615Z,8.57
2023-01-13T14:05:38.788Z,7.43
2023-01-13T14:10:46.542Z,9.95
2023-01-13T14:20:59.964Z,9.93
2023-01-13T14:31:15.099Z,8.57
2023-01-13T14:36:23.292Z,10.32
2023-01-13T14:41:32.774Z,9.35
2023-01-13T14:46:41.015Z,11.27
2023-01-13T14:51:45.174Z,13.07
2023-01-13T14:56:55.214Z,13.45
2023-01-13T15:01:59.608Z,11.23
2023-01-13T15:07:04.768Z,9.10
2023-01-13T15:12:39.243Z,11.68
2023-01-13T15:17:43.307Z,7.72
2023-01-13T15:22:47.382Z,8.55
2023-01-13T15:27:54.317Z,7.72
2023-01-13T15:33:00.139Z,7.53
2023-01-13T15:38:07.649Z,9.23
2023-01-13T15:43:35.098Z,7.47
2023-01-13T15:48:38.734Z,9.63
2023-01-13T15:53:43.480Z,11.80
2023-01-13T15:58:48.766Z,7.82
2023-01-13T16:03:52.862Z,9.02
2023-01-13T16:08:57.031Z,7.20
2023-01-13T16:14:02.309Z,8.93
2023-01-13T16:19:06.310Z,11.18
2023-01-13T16:24:10.058Z,10.45
2023-01-13T16:29:15.162Z,14.85
2023-01-13T16:34:19.315Z,17.85
2023-01-13T16:39:23.873Z,13.98
2023-01-13T16:44:29.022Z,36.38
2023-01-13T16:49:32.742Z,30.10
2023-01-13T16:54:36.623Z,24.85
2023-01-13T16:59:41.810Z,21.30
2023-01-13T17:04:45.519Z,20.77
2023-01-13T17:09:49.343Z,19.42
2023-01-13T17:14:54.530Z,23.42
2023-01-13T17:19:58.211Z,19.27
2023-01-13T17:25:01.946Z,23.05
2023-01-13T17:30:09.554Z,19.25
2023-01-13T17:35:18.918Z,23.50
2023-01-13T17:40:23.090Z,20.20
2023-01-13T17:45:28.391Z,19.38
2023-01-13T17:50:34.088Z,17.52
2023-01-13T17:55:37.890Z,13.95
2023-01-13T18:00:43.370Z,16.02
2023-01-13T18:05:47.179Z,13.63
2023-01-13T18:10:54.797Z,11.52
2023-01-13T18:16:07.338Z,13.02
2023-01-13T18:21:38.573Z,14.32
2023-01-13T18:26:59.984Z,13.30
2023-01-13T18:32:07.641Z,12.30
2023-01-13T18:37:13.440Z,11.15
2023-01-13T18:42:34.470Z,8.68
2023-01-13T18:47:42.235Z,10.90
2023-01-13T18:52:46.068Z,9.10
2023-01-13T18:57:50.516Z,9.40
2023-01-13T19:08:09.979Z,8.55
2023-01-13T19:13:16.128Z,10.32
2023-01-13T19:18:23.946Z,8.60
2023-01-13T19:23:27.644Z,10.48
2023-01-13T19:28:31.360Z,9.30
2023-01-13T19:33:40.297Z,9.00
2023-01-13T19:38:43.995Z,8.60
2023-01-13T19:44:05.434Z,8.70
2023-01-13T19:49:11.313Z,9.02
2023-01-13T19:54:14.956Z,9.55
2023-01-13T19:59:22.206Z,10.90
2023-01-13T20:04:33.762Z,10.23
2023-01-13T20:09:37.729Z,8.82
2023-01-13T20:14:41.493Z,8.65
2023-01-13T20:19:46.797Z,12.75
2023-01-13T20:24:54.978Z,10.55
2023-01-13T20:29:58.999Z,8.05
2023-01-13T20:35:04.332Z,10.55
2023-01-13T20:40:11.681Z,12.05
2023-01-13T20:45:20.861Z,8.48
2023-01-13T20:50:28.291Z,8.15
2023-01-13T20:55:34.767Z,8.43
2023-01-13T21:00:38.510Z,9.68
2023-01-13T21:05:43.541Z,7.28
2023-01-13T21:10:49.663Z,8.18
2023-01-13T21:15:55.350Z,9.13
2023-01-13T21:21:12.352Z,7.70
2023-01-13T21:26:18.553Z,8.37
2023-01-13T21:31:22.121Z,9.98
2023-01-13T21:36:28.771Z,7.18
2023-01-13T21:41:49.859Z,9.80
2023-01-13T21:47:10.934Z,10.48
2023-01-13T21:52:16.992Z,9.85
2023-01-13T21:57:20.599Z,8.13
2023-01-13T22:02:35.786Z,8.77
2023-01-13T22:07:42.157Z,9.93
2023-01-13T22:12:45.945Z,7.43
2023-01-13T22:17:52.794Z,7.82
2023-01-13T22:22:59.402Z,8.55
2023-01-13T22:28:06.092Z,6.10
2023-01-13T22:33:09.906Z,14.85
2023-01-13T22:38:18.397Z,13.63
2023-01-13T22:43:23.594Z,10.93
2023-01-13T22:48:27.789Z,11.80
2023-01-13T22:53:35.108Z,10.35
2023-01-13T22:58:39.030Z,8.98
2023-01-13T23:03:46.307Z,8.35
2023-01-13T23:08:52.682Z,9.27
2023-01-13T23:14:02.072Z,8.63
2023-01-13T23:19:06.981Z,12.10
2023-01-13T23:24:14.253Z,11.77
2023-01-13T23:29:18.336Z,9.85
2023-01-13T23:34:21.989Z,8.38
2023-01-13T23:39:27.530Z,8.73
2023-01-13T23:44:31.224Z,9.20
2023-01-13T23:49:34.956Z,8.65
2023-01-13T23:54:40.210Z,9.98
2023-01-13T23:59:44.716Z,10.45
